Time;durP1;ratioP1;P1;durP2;ratioP2;P2;SDS_P1;SDS_P2;PMS_P1;PMS_P2;Temp;Humidity;BMP_temperature;BMP_pressure;BME280_temperature;BME280_humidity;BME280_pressure;Samples;Min_cycle;Max_cycle;Signal;HPM_P1;HPM_P2
2021/04/15 00:00:34;;;;;;;6.57;1.35;;;3.20;97.10;;;;;;5060906;28;20036;-79
2021/04/15 00:03:06;;;;;;;3.47;1.38;;;3.30;97.10;;;;;;5055983;28;20056;-79
2021/04/15 00:05:32;;;;;;;2.63;1.35;;;3.30;96.90;;;;;;5058189;28;20045;-78
2021/04/15 00:07:59;;;;;;;2.78;1.27;;;3.40;96.90;;;;;;5061599;28;20071;-78
2021/04/15 00:10:39;;;;;;;3.50;1.50;;;3.30;96.60;;;;;;5065321;28;20041;-79
2021/04/15 00:13:17;;;;;;;4.68;1.65;;;3.30;96.70;;;;;;5054422;28;20099;-80
2021/04/15 00:15:46;;;;;;;3.92;1.30;;;3.40;96.70;;;;;;5066470;28;20436;-80
2021/04/15 00:21:24;;;;;;;3.97;1.42;;;3.40;96.80;;;;;;5064026;28;20074;-80
2021/04/15 00:23:53;;;;;;;4.70;1.40;;;3.40;96.80;;;;;;5062144;28;20041;-79
2021/04/15 00:26:22;;;;;;;3.60;1.73;;;3.40;96.80;;;;;;5054489;28;20056;-79
2021/04/15 00:28:50;;;;;;;3.22;1.50;;;3.40;96.80;;;;;;5053362;28;20045;-78
2021/04/15 00:31:16;;;;;;;2.83;1.65;;;3.40;96.70;;;;;;5067980;28;20060;-80
2021/04/15 00:33:42;;;;;;;3.03;1.45;;;3.40;96.80;;;;;;5058897;28;20053;-78
2021/04/15 00:36:08;;;;;;;3.33;1.65;;;3.40;97.00;;;;;;5055885;28;20055;-79
2021/04/15 00:38:34;;;;;;;3.97;1.85;;;3.50;97.00;;;;;;5055747;28;20040;-80
2021/04/15 00:41:00;;;;;;;4.13;1.65;;;3.40;96.80;;;;;;5055247;28;20155;-79
2021/04/15 00:43:33;;;;;;;2.53;1.50;;;3.40;97.00;;;;;;5055997;28;20045;-80
2021/04/15 00:46:16;;;;;;;5.68;1.85;;;3.40;97.10;;;;;;5061414;28;20033;-80
2021/04/15 00:48:43;;;;;;;4.85;2.13;;;3.40;97.20;;;;;;5055344;28;20086;-79
2021/04/15 00:51:14;;;;;;;3.08;1.77;;;3.40;97.10;;;;;;5056860;28;20066;-79
2021/04/15 00:53:44;;;;;;;5.07;1.95;;;3.40;97.10;;;;;;5057795;28;20044;-80
2021/04/15 00:56:12;;;;;;;3.25;1.90;;;3.40;97.20;;;;;;5057990;28;20037;-79
2021/04/15 00:58:38;;;;;;;5.88;2.15;;;3.40;97.20;;;;;;5063376;28;20037;-79
2021/04/15 01:01:05;;;;;;;4.30;2.10;;;3.40;97.20;;;;;;5058510;28;20139;-79
2021/04/15 01:03:33;;;;;;;4.72;2.42;;;3.40;97.30;;;;;;5059850;28;20053;-79
2021/04/15 01:05:58;;;;;;;3.63;2.25;;;3.30;97.20;;;;;;5051691;28;20156;-79
2021/04/15 01:08:25;;;;;;;6.28;2.45;;;3.30;97.20;;;;;;5065219;28;20463;-79
2021/04/15 01:11:19;;;;;;;4.35;2.13;;;3.20;97.30;;;;;;5060191;28;20041;-79
2021/04/15 01:14:01;;;;;;;7.35;2.60;;;3.20;97.30;;;;;;5061942;28;20060;-79
2021/04/15 01:16:40;;;;;;;4.43;2.08;;;3.20;97.70;;;;;;5055342;28;20060;-79
2021/04/15 01:19:55;;;;;;;4.70;2.42;;;3.10;97.30;;;;;;5064301;28;20775;-79
2021/04/15 01:22:51;;;;;;;5.03;2.72;;;3.10;97.50;;;;;;5056564;28;20112;-79
2021/04/15 01:25:45;;;;;;;6.18;2.58;;;3.10;97.40;;;;;;5056653;28;20036;-79
2021/04/15 01:28:29;;;;;;;3.80;2.45;;;3.00;97.70;;;;;;5054481;28;20033;-79
2021/04/15 01:31:13;;;;;;;5.13;2.38;;;3.00;97.70;;;;;;5059719;28;20048;-79
2021/04/15 01:34:01;;;;;;;5.65;2.35;;;2.90;97.90;;;;;;5054185;28;20049;-79
2021/04/15 01:37:00;;;;;;;4.75;3.00;;;2.90;97.60;;;;;;5060435;28;20048;-79
2021/04/15 01:39:34;;;;;;;4.90;2.45;;;2.90;97.60;;;;;;5058295;28;20075;-79
2021/04/15 01:42:05;;;;;;;4.35;2.65;;;2.80;97.60;;;;;;5053840;28;20100;-79
2021/04/15 01:44:37;;;;;;;3.63;1.95;;;2.80;97.60;;;;;;5058537;28;20049;-79
2021/04/15 01:47:09;;;;;;;3.42;2.10;;;2.80;97.80;;;;;;5054213;28;20041;-79
2021/04/15 01:49:40;;;;;;;5.13;2.33;;;2.80;97.60;;;;;;5062527;28;20531;-79
2021/04/15 01:52:12;;;;;;;4.35;3.05;;;2.70;97.70;;;;;;5057243;28;20062;-79
2021/04/15 01:54:50;;;;;;;3.90;2.67;;;2.70;97.70;;;;;;5059285;28;20056;-79
2021/04/15 01:57:26;;;;;;;8.30;3.05;;;2.70;97.70;;;;;;5063453;28;20468;-80
2021/04/15 02:00:06;;;;;;;4.38;2.97;;;2.70;97.60;;;;;;5054999;28;20045;-80
2021/04/15 02:02:45;;;;;;;5.80;2.80;;;2.60;97.60;;;;;;5051253;28;20036;-79
2021/04/15 02:05:33;;;;;;;5.32;2.35;;;2.50;97.50;;;;;;5058614;28;20148;-79
2021/04/15 02:08:03;;;;;;;3.65;2.38;;;2.50;97.50;;;;;;5051953;28;20125;-79
2021/04/15 02:10:30;;;;;;;5.38;2.80;;;2.40;97.50;;;;;;5056869;28;20405;-79
2021/04/15 02:13:18;;;;;;;4.13;2.70;;;2.40;97.50;;;;;;5049796;28;20637;-79
2021/04/15 02:15:48;;;;;;;6.63;2.15;;;2.30;97.50;;;;;;5057617;28;20472;-79
2021/04/15 02:18:20;;;;;;;4.18;2.35;;;2.30;97.50;;;;;;5040620;28;20036;-79
2021/04/15 02:20:49;;;;;;;3.17;2.10;;;2.20;97.40;;;;;;5057646;28;20051;-79
2021/04/15 02:23:25;;;;;;;4.20;2.63;;;2.10;97.30;;;;;;5049188;28;20408;-79
2021/04/15 02:26:06;;;;;;;8.05;3.10;;;2.10;97.30;;;;;;5054191;28;20064;-79
2021/04/15 02:28:50;;;;;;;5.30;2.72;;;2.00;97.30;;;;;;5058626;28;20109;-79
2021/04/15 02:31:23;;;;;;;4.07;2.40;;;2.00;97.30;;;;;;5058917;28;20036;-79
2021/04/15 02:34:03;;;;;;;4.45;2.20;;;1.90;97.30;;;;;;5049925;28;20308;-79
2021/04/15 02:36:45;;;;;;;4.43;2.88;;;1.80;97.20;;;;;;5055903;28;20049;-78
2021/04/15 02:39:33;;;;;;;4.25;2.88;;;1.70;97.20;;;;;;5050084;28;20037;-79
2021/04/15 02:42:05;;;;;;;3.25;2.65;;;1.70;97.20;;;;;;5061219;28;20036;-79
2021/04/15 02:44:47;;;;;;;5.80;2.83;;;1.60;97.20;;;;;;5056127;28;20095;-79
2021/04/15 02:47:17;;;;;;;6.97;2.90;;;1.50;97.20;;;;;;5053318;28;20037;-79
2021/04/15 02:49:43;;;;;;;4.22;2.58;;;1.50;97.20;;;;;;5049521;28;20548;-79
2021/04/15 02:52:23;;;;;;;3.58;2.25;;;1.40;97.30;;;;;;5058470;28;20112;-79
2021/04/15 02:55:05;;;;;;;3.25;2.20;;;1.40;97.30;;;;;;5060167;28;20538;-79
2021/04/15 02:57:45;;;;;;;4.13;2.80;;;1.30;97.20;;;;;;5052295;28;20485;-79
2021/04/15 03:00:24;;;;;;;2.58;2.20;;;1.30;97.20;;;;;;5050541;28;20572;-79
2021/04/15 03:03:11;;;;;;;3.83;3.30;;;1.20;97.20;;;;;;5060773;28;20045;-79
2021/04/15 03:05:52;;;;;;;3.92;3.03;;;1.10;97.20;;;;;;5052662;28;20120;-79
2021/04/15 03:08:22;;;;;;;3.55;2.95;;;1.00;97.20;;;;;;5063078;28;20518;-79
2021/04/15 03:11:07;;;;;;;5.43;3.53;;;1.00;97.20;;;;;;5052009;28;20035;-79
2021/04/15 03:13:39;;;;;;;5.97;3.08;;;1.00;97.20;;;;;;5059635;28;20461;-79
2021/04/15 03:16:05;;;;;;;3.83;2.78;;;0.90;97.20;;;;;;5058641;28;20048;-79
2021/04/15 03:18:52;;;;;;;7.18;3.90;;;0.90;97.20;;;;;;5064061;28;20047;-79
2021/04/15 03:21:21;;;;;;;7.80;4.13;;;0.80;97.20;;;;;;5061450;28;20083;-79
2021/04/15 03:24:06;;;;;;;10.23;5.70;;;0.80;97.20;;;;;;5060096;28;20049;-79
2021/04/15 03:26:44;;;;;;;7.57;4.23;;;0.80;97.70;;;;;;5057307;28;20044;-79
2021/04/15 03:29:32;;;;;;;8.35;5.72;;;0.80;97.80;;;;;;5068984;28;20044;-79
2021/04/15 03:32:12;;;;;;;6.78;4.38;;;0.80;97.80;;;;;;5051914;28;20092;-79
2021/04/15 03:35:07;;;;;;;7.03;4.53;;;0.80;97.70;;;;;;5060393;28;20128;-78
2021/04/15 03:37:54;;;;;;;4.85;4.30;;;0.80;97.60;;;;;;5052036;28;20133;-79
2021/04/15 03:40:25;;;;;;;5.63;3.97;;;0.70;97.60;;;;;;5059515;28;20071;-78
2021/04/15 03:43:05;;;;;;;5.53;3.75;;;0.70;97.50;;;;;;5057955;28;20037;-79
2021/04/15 03:45:38;;;;;;;7.00;4.78;;;0.70;97.60;;;;;;5065760;28;20445;-78
2021/04/15 03:48:08;;;;;;;8.45;5.25;;;0.70;97.70;;;;;;5060314;28;20040;-78
2021/04/15 03:50:54;;;;;;;6.53;4.18;;;0.60;97.70;;;;;;5062339;28;20369;-78
2021/04/15 03:53:27;;;;;;;5.57;3.53;;;0.60;97.70;;;;;;5064647;28;20480;-78
2021/04/15 03:56:00;;;;;;;7.15;4.70;;;0.50;97.50;;;;;;5053053;28;20044;-78
2021/04/15 03:58:40;;;;;;;8.13;4.30;;;0.50;97.60;;;;;;5061155;28;20045;-78
2021/04/15 04:01:22;;;;;;;7.78;4.13;;;0.40;97.60;;;;;;5051924;28;20504;-78
2021/04/15 04:04:02;;;;;;;9.18;5.13;;;0.30;97.50;;;;;;5062483;28;20523;-78
2021/04/15 04:06:30;;;;;;;7.93;4.78;;;0.30;97.60;;;;;;5053476;28;20384;-78
2021/04/15 04:09:04;;;;;;;8.13;4.60;;;0.30;97.60;;;;;;5057261;28;20061;-78
2021/04/15 04:11:35;;;;;;;12.48;5.88;;;0.20;97.70;;;;;;5051904;28;20053;-79
2021/04/15 04:14:12;;;;;;;6.55;4.30;;;0.20;97.70;;;;;;5055175;28;20045;-78
2021/04/15 04:16:49;;;;;;;11.35;5.22;;;0.10;97.80;;;;;;5053995;28;20499;-78
2021/04/15 04:19:27;;;;;;;8.52;4.95;;;0.10;97.80;;;;;;5060762;28;20594;-78
2021/04/15 04:22:18;;;;;;;9.52;5.13;;;0.10;97.80;;;;;;5056817;28;20381;-78
2021/04/15 04:24:57;;;;;;;6.68;3.70;;;0.10;97.90;;;;;;5057600;28;20041;-78
2021/04/15 04:27:49;;;;;;;10.10;4.75;;;0.20;98.10;;;;;;5061531;28;20086;-79
2021/04/15 04:30:20;;;;;;;11.50;4.75;;;0.20;98.10;;;;;;5081275;28;20052;-79
2021/04/15 04:32:47;;;;;;;10.88;3.88;;;0.20;98.20;;;;;;5052551;28;20053;-78
2021/04/15 04:35:20;;;;;;;18.02;4.75;;;0.20;98.20;;;;;;5058849;28;20496;-78
2021/04/15 04:37:52;;;;;;;28.35;7.97;;;0.30;98.30;;;;;;5052741;28;20068;-78
2021/04/15 04:40:24;;;;;;;23.17;6.00;;;0.30;98.40;;;;;;5058063;28;20453;-79
2021/04/15 04:43:13;;;;;;;22.77;6.72;;;0.40;98.50;;;;;;5055179;28;20040;-79
2021/04/15 04:45:40;;;;;;;21.98;6.72;;;0.40;98.60;;;;;;5060844;28;20041;-79
2021/04/15 04:48:11;;;;;;;17.30;6.80;;;0.40;98.70;;;;;;5060373;28;20099;-78
2021/04/15 04:50:52;;;;;;;14.65;6.28;;;0.40;98.80;;;;;;5056326;28;20117;-80
2021/04/15 04:53:32;;;;;;;11.50;5.60;;;0.40;98.80;;;;;;5058992;28;20083;-79
2021/04/15 04:56:18;;;;;;;11.02;5.07;;;0.40;98.80;;;;;;5060622;28;20492;-79
2021/04/15 04:59:05;;;;;;;14.70;5.75;;;0.40;98.80;;;;;;5060362;28;20083;-79
2021/04/15 05:01:31;;;;;;;11.35;4.85;;;0.30;98.80;;;;;;5067629;28;20033;-78
2021/04/15 05:03:59;;;;;;;27.48;5.53;;;0.30;98.90;;;;;;5049575;28;20508;-79
2021/04/15 05:06:34;;;;;;;38.10;6.28;;;0.30;99.10;;;;;;5068035;28;20048;-78
2021/04/15 05:09:05;;;;;;;32.60;5.43;;;0.30;99.10;;;;;;5059957;28;20499;-79
2021/04/15 05:11:33;;;;;;;23.08;4.95;;;0.20;99.20;;;;;;5050849;28;20052;-80
2021/04/15 05:14:00;;;;;;;13.27;5.20;;;0.20;99.20;;;;;;5063641;28;20057;-79
2021/04/15 05:16:36;;;;;;;7.75;4.95;;;0.20;99.20;;;;;;5066158;28;20098;-80
2021/04/15 05:19:02;;;;;;;12.25;5.05;;;0.20;99.20;;;;;;5070774;28;20043;-80
2021/04/15 05:21:31;;;;;;;8.75;5.03;;;0.20;99.20;;;;;;5061215;28;20064;-78
2021/04/15 05:24:07;;;;;;;7.50;4.78;;;0.30;99.40;;;;;;5062303;28;20478;-79
2021/04/15 05:26:37;;;;;;;8.52;4.57;;;0.40;99.50;;;;;;5063465;28;20037;-79
2021/04/15 05:29:06;;;;;;;8.00;5.50;;;0.50;99.60;;;;;;5066552;28;20033;-79
2021/04/15 05:31:38;;;;;;;11.60;6.53;;;0.70;99.70;;;;;;5061924;28;20052;-79
2021/04/15 05:34:15;;;;;;;11.15;6.28;;;0.80;99.70;;;;;;5066653;28;20060;-78
2021/04/15 05:36:41;;;;;;;9.15;5.93;;;1.00;99.90;;;;;;5062352;28;20044;-78
2021/04/15 05:39:11;;;;;;;9.98;6.45;;;1.30;99.90;;;;;;5066004;28;20090;-78
2021/04/15 05:41:57;;;;;;;13.38;9.75;;;1.50;99.90;;;;;;5059093;28;20124;-79
2021/04/15 05:44:42;;;;;;;6.28;4.40;;;1.70;99.90;;;;;;5070824;28;20584;-79
2021/04/15 05:47:14;;;;;;;8.00;4.60;;;2.00;99.90;;;;;;5061865;28;20037;-79
2021/04/15 05:49:58;;;;;;;9.00;5.78;;;2.20;99.80;;;;;;5067713;28;20040;-78
2021/04/15 05:52:58;;;;;;;6.78;4.47;;;2.30;99.50;;;;;;5065272;28;20098;-79
2021/04/15 05:55:40;;;;;;;10.10;6.03;;;2.50;99.40;;;;;;5065908;28;20059;-79
2021/04/15 05:58:29;;;;;;;7.57;5.60;;;2.70;99.40;;;;;;5066799;28;20056;-79
2021/04/15 06:01:07;;;;;;;9.27;5.90;;;2.90;99.30;;;;;;5063455;28;20439;-79
2021/04/15 06:03:57;;;;;;;11.20;5.28;;;3.20;99.10;;;;;;5073536;28;20055;-79
2021/04/15 06:06:31;;;;;;;9.48;6.22;;;3.40;98.60;;;;;;5063265;28;20107;-80
2021/04/15 06:08:59;;;;;;;8.57;6.45;;;3.60;98.30;;;;;;5067320;28;20068;-80
2021/04/15 06:11:53;;;;;;;9.82;6.22;;;3.70;98.20;;;;;;5064865;28;20675;-79
2021/04/15 06:14:37;;;;;;;10.73;5.73;;;4.00;98.10;;;;;;5070280;28;20529;-79
2021/04/15 06:17:13;;;;;;;;;;;4.20;97.80;;;;;;5063791;28;20096;-79
2021/04/15 06:19:43;;;;;;;10.38;5.10;;;4.30;97.40;;;;;;5069037;28;20055;-80
2021/04/15 06:22:13;;;;;;;11.95;5.50;;;4.50;97.70;;;;;;5067609;28;20049;-80
2021/04/15 06:24:43;;;;;;;11.25;5.18;;;4.70;97.40;;;;;;5069150;28;20481;-79
2021/04/15 06:27:10;;;;;;;12.98;5.30;;;4.90;97.30;;;;;;5060252;28;20032;-79
2021/04/15 06:29:44;;;;;;;9.73;4.68;;;5.00;97.00;;;;;;5068669;28;20048;-79
2021/04/15 06:32:13;;;;;;;;;;;5.20;96.70;;;;;;5063765;28;20051;-79
2021/04/15 06:34:39;;;;;;;9.85;4.60;;;5.50;96.40;;;;;;5067830;28;19955;-79
2021/04/15 06:37:41;;;;;;;8.88;4.68;;;5.70;96.10;;;;;;5047708;28;20032;-78
2021/04/15 06:40:19;;;;;;;8.73;4.25;;;5.90;95.40;;;;;;5051327;28;20049;-79
2021/04/15 06:43:14;;;;;;;6.82;3.53;;;6.20;95.20;;;;;;5075275;28;20045;-79
2021/04/15 06:45:58;;;;;;;13.63;7.90;;;6.50;94.10;;;;;;5067954;28;20060;-79
2021/04/15 06:48:47;;;;;;;5.45;3.22;;;6.60;94.20;;;;;;5066690;28;20071;-80
2021/04/15 06:51:42;;;;;;;7.18;3.90;;;6.90;92.90;;;;;;5073909;28;20084;-78
2021/04/15 06:54:30;;;;;;;10.60;4.43;;;6.90;93.50;;;;;;5049496;28;20136;-79
2021/04/15 06:57:17;;;;;;;10.07;4.50;;;7.00;93.00;;;;;;5065586;28;20390;-78
2021/04/15 06:59:48;;;;;;;8.68;3.50;;;7.20;92.70;;;;;;5058790;28;20245;-78
2021/04/15 07:02:43;;;;;;;10.55;4.55;;;7.50;92.50;;;;;;5061615;28;20045;-78
2021/04/15 07:05:17;;;;;;;6.18;3.40;;;7.60;91.40;;;;;;5067970;28;20118;-78
2021/04/15 07:08:02;;;;;;;7.75;3.60;;;7.60;91.70;;;;;;5064444;28;20044;-79
2021/04/15 07:10:57;;;;;;;9.18;3.45;;;7.90;91.70;;;;;;5056727;28;20124;-77
2021/04/15 07:13:55;;;;;;;7.40;3.38;;;8.30;90.70;;;;;;5055464;28;20073;-78
2021/04/15 07:16:26;;;;;;;9.02;3.75;;;8.60;89.90;;;;;;5059142;28;20043;-79
2021/04/15 07:19:14;;;;;;;7.80;3.60;;;8.60;90.00;;;;;;5066265;28;20064;-77
2021/04/15 07:22:02;;;;;;;9.02;3.58;;;8.70;87.60;;;;;;5055937;28;20025;-77
2021/04/15 07:24:53;;;;;;;7.55;3.45;;;8.80;88.30;;;;;;5055354;28;20888;-77
2021/04/15 07:27:43;;;;;;;5.95;3.15;;;8.80;87.30;;;;;;5059442;28;20081;-79
2021/04/15 07:30:43;;;;;;;7.78;3.45;;;8.80;88.20;;;;;;5049537;28;20033;-78
2021/04/15 07:33:38;;;;;;;11.07;3.83;;;9.20;88.00;;;;;;5064158;28;20056;-78
2021/04/15 07:36:21;;;;;;;16.25;10.95;;;9.30;85.50;;;;;;5054906;28;20060;-78
2021/04/15 07:39:18;;;;;;;10.65;3.78;;;9.40;85.20;;;;;;5060388;28;20036;-80
2021/04/15 07:42:13;;;;;;;8.88;4.07;;;9.50;85.00;;;;;;5065056;28;20049;-80
2021/04/15 07:44:56;;;;;;;9.55;3.10;;;9.30;83.90;;;;;;5075735;28;20101;-79
2021/04/15 07:47:31;;;;;;;8.88;3.47;;;9.30;87.00;;;;;;5065245;28;20041;-81
2021/04/15 07:50:43;;;;;;;5.90;3.20;;;9.30;86.50;;;;;;5061488;28;20040;-80
2021/04/15 07:53:49;;;;;;;6.07;3.38;;;9.70;82.40;;;;;;5067804;28;20123;-80
2021/04/15 07:56:34;;;;;;;10.57;3.42;;;9.70;82.10;;;;;;5060088;28;20078;-81
2021/04/15 07:59:30;;;;;;;8.02;2.97;;;9.50;84.70;;;;;;5061270;28;20041;-81
2021/04/15 08:02:18;;;;;;;10.23;3.20;;;9.60;82.40;;;;;;5045107;28;20068;-79
2021/04/15 08:05:14;;;;;;;7.25;3.13;;;9.90;85.40;;;;;;5069044;28;20060;-78
2021/04/15 08:08:02;;;;;;;9.23;3.92;;;9.80;81.20;;;;;;5061115;28;20042;-80
2021/04/15 08:10:46;;;;;;;9.13;3.15;;;9.30;83.30;;;;;;5069455;28;20037;-81
2021/04/15 08:13:18;;;;;;;9.68;3.28;;;9.00;82.10;;;;;;5062727;28;20040;-80
2021/04/15 08:16:18;;;;;;;6.07;3.08;;;9.00;83.70;;;;;;5068730;28;20093;-81
2021/04/15 08:18:54;;;;;;;10.75;4.65;;;9.10;82.30;;;;;;5071090;28;20047;-78
2021/04/15 08:21:45;;;;;;;9.77;3.40;;;9.10;82.80;;;;;;5062347;28;20045;-80
2021/04/15 08:24:11;;;;;;;6.85;2.90;;;9.30;82.60;;;;;;5076821;28;20045;-81
2021/04/15 08:27:05;;;;;;;7.88;3.15;;;9.70;83.70;;;;;;5071339;28;20119;-81
2021/04/15 08:30:08;;;;;;;7.22;3.08;;;9.90;81.00;;;;;;5072255;28;20037;-80
2021/04/15 08:33:13;;;;;;;8.95;3.53;;;10.00;78.70;;;;;;5064745;28;20106;-80
2021/04/15 08:36:06;;;;;;;7.80;2.97;;;10.00;79.40;;;;;;5068653;28;20060;-80
2021/04/15 08:39:05;;;;;;;6.30;2.53;;;10.20;74.70;;;;;;5061614;28;20083;-81
2021/04/15 08:41:55;;;;;;;6.68;3.42;;;10.20;76.70;;;;;;5067456;28;20040;-80
2021/04/15 08:44:24;;;;;;;6.32;2.53;;;10.30;74.40;;;;;;5067263;28;20397;-80
2021/04/15 08:47:26;;;;;;;6.25;2.92;;;10.30;72.60;;;;;;5066403;28;20079;-81
2021/04/15 08:50:03;;;;;;;5.70;2.85;;;10.30;71.60;;;;;;5046984;28;20052;-81
2021/04/15 08:53:09;;;;;;;8.30;3.20;;;10.10;72.30;;;;;;5066597;28;20037;-82
2021/04/15 08:55:39;;;;;;;6.50;2.75;;;9.70;70.50;;;;;;5018434;28;20058;-80
2021/04/15 08:58:47;;;;;;;8.45;3.35;;;9.30;74.50;;;;;;5061384;28;20059;-80
2021/04/15 09:01:47;;;;;;;9.30;2.83;;;9.20;76.60;;;;;;5065134;28;20128;-80
2021/04/15 09:04:17;;;;;;;7.20;2.42;;;9.40;75.00;;;;;;5060821;28;20049;-79
2021/04/15 09:07:02;;;;;;;7.82;2.47;;;9.60;75.90;;;;;;5052128;28;20501;-81
2021/04/15 09:09:48;;;;;;;10.35;2.95;;;9.50;73.40;;;;;;5069499;28;20040;-82
2021/04/15 09:12:29;;;;;;;7.35;2.83;;;9.20;72.70;;;;;;5074485;28;20052;-80
2021/04/15 09:15:17;;;;;;;7.65;2.60;;;9.20;74.30;;;;;;5061661;28;20044;-80
2021/04/15 09:18:06;;;;;;;5.00;2.05;;;9.20;71.10;;;;;;5072962;28;20060;-80
2021/04/15 09:20:38;;;;;;;4.35;1.75;;;9.40;70.90;;;;;;5072504;28;20040;-80
2021/04/15 09:23:46;;;;;;;4.93;2.63;;;9.60;70.20;;;;;;5070691;28;20057;-81
2021/04/15 09:26:40;;;;;;;6.25;2.10;;;9.70;68.30;;;;;;5069025;28;20044;-80
2021/04/15 09:29:33;;;;;;;3.92;1.90;;;9.70;68.30;;;;;;5064298;28;20033;-81
2021/04/15 09:32:28;;;;;;;5.85;1.92;;;9.90;68.00;;;;;;5054915;28;20040;-81
2021/04/15 09:35:09;;;;;;;5.88;1.80;;;10.20;65.80;;;;;;5066490;28;20056;-81
2021/04/15 09:37:38;;;;;;;7.13;1.77;;;10.30;62.30;;;;;;5072584;28;20045;-81
2021/04/15 09:40:11;;;;;;;5.10;1.70;;;10.10;66.00;;;;;;5058787;28;20647;-80
2021/04/15 09:42:59;;;;;;;3.92;1.42;;;9.90;65.20;;;;;;5072442;28;20032;-80
2021/04/15 09:45:59;;;;;;;2.80;1.40;;;10.00;61.20;;;;;;5064992;28;20045;-81
2021/04/15 09:48:52;;;;;;;6.65;1.80;;;10.30;61.30;;;;;;5077747;28;20580;-81
2021/04/15 09:51:48;;;;;;;1.77;1.15;;;10.70;59.00;;;;;;5063853;28;20048;-80
2021/04/15 09:54:29;;;;;;;3.50;1.00;;;10.90;55.00;;;;;;5074749;28;20064;-82
2021/04/15 09:56:58;;;;;;;2.83;0.90;;;11.20;55.50;;;;;;5067137;28;20036;-81
2021/04/15 09:59:29;;;;;;;2.53;0.70;;;11.20;55.20;;;;;;5065006;28;20052;-81
2021/04/15 10:02:08;;;;;;;3.92;0.95;;;11.30;54.60;;;;;;5069328;28;20028;-80
2021/04/15 10:05:05;;;;;;;3.03;1.05;;;11.50;52.50;;;;;;5077456;28;20055;-80
2021/04/15 10:07:39;;;;;;;3.03;0.88;;;11.40;49.60;;;;;;5060029;28;20056;-80
2021/04/15 10:10:32;;;;;;;3.78;1.00;;;11.50;52.70;;;;;;5073325;28;20092;-81
2021/04/15 10:13:19;;;;;;;4.85;0.90;;;11.50;49.60;;;;;;5063833;28;20099;-81
2021/04/15 10:15:52;;;;;;;1.90;0.70;;;11.40;50.90;;;;;;5075057;28;20041;-81
2021/04/15 10:18:46;;;;;;;6.28;1.50;;;11.20;51.30;;;;;;5068648;28;20029;-81
2021/04/15 10:21:37;;;;;;;3.08;0.98;;;11.40;52.00;;;;;;5059856;28;20044;-81
2021/04/15 10:24:29;;;;;;;2.25;0.77;;;11.60;51.50;;;;;;5070940;28;20481;-81
2021/04/15 10:27:29;;;;;;;4.70;2.33;;;11.70;48.00;;;;;;5060213;28;20099;-81
2021/04/15 10:30:31;;;;;;;3.60;0.90;;;11.60;47.00;;;;;;5074804;28;20044;-81
2021/04/15 10:33:36;;;;;;;3.20;0.90;;;11.50;43.20;;;;;;5069769;28;20053;-81
2021/04/15 10:36:16;;;;;;;3.03;0.70;;;11.60;45.90;;;;;;5073992;28;20050;-81
2021/04/15 10:38:57;;;;;;;3.22;0.98;;;11.80;43.70;;;;;;5064096;28;20037;-82
2021/04/15 10:42:10;;;;;;;3.35;1.00;;;11.90;44.90;;;;;;5076580;28;20033;-81
2021/04/15 10:45:00;;;;;;;3.20;0.95;;;11.90;44.40;;;;;;5071634;28;20060;-81
2021/04/15 10:47:48;;;;;;;3.75;1.13;;;11.90;47.10;;;;;;5064404;28;20036;-81
2021/04/15 10:50:38;;;;;;;2.10;0.70;;;12.10;43.70;;;;;;5079993;28;20048;-81
2021/04/15 10:53:12;;;;;;;2.80;0.90;;;12.00;44.00;;;;;;5061714;28;20048;-81
2021/04/15 10:55:48;;;;;;;3.30;0.80;;;12.10;45.90;;;;;;5064155;28;20045;-81
2021/04/15 10:58:29;;;;;;;2.28;0.80;;;12.30;45.10;;;;;;5060263;28;20044;-82
2021/04/15 11:00:55;;;;;;;3.85;1.20;;;12.50;43.60;;;;;;5070872;28;20045;-82
2021/04/15 11:03:27;;;;;;;1.90;0.80;;;12.50;45.50;;;;;;5069762;28;20033;-82
2021/04/15 11:05:56;;;;;;;3.70;1.02;;;12.70;44.70;;;;;;5067601;28;20045;-82
2021/04/15 11:08:28;;;;;;;3.00;1.00;;;12.70;45.10;;;;;;5068697;28;20148;-82
2021/04/15 11:11:17;;;;;;;2.83;1.50;;;12.60;43.90;;;;;;5078729;28;20056;-82
2021/04/15 11:13:43;;;;;;;3.88;1.20;;;12.10;41.20;;;;;;5061938;28;20040;-81
2021/04/15 11:16:23;;;;;;;3.03;0.90;;;11.70;44.50;;;;;;5069846;28;20361;-81
2021/04/15 11:18:50;;;;;;;4.88;1.48;;;11.50;43.10;;;;;;5050404;28;20456;-81
2021/04/15 11:21:28;;;;;;;1.92;0.88;;;11.30;45.60;;;;;;5074093;28;20037;-82
2021/04/15 11:23:56;;;;;;;2.00;0.93;;;11.20;45.50;;;;;;5051013;28;20448;-81
2021/04/15 11:26:45;;;;;;;4.10;1.20;;;10.90;46.00;;;;;;5067496;28;20053;-81
2021/04/15 11:29:43;;;;;;;3.08;0.85;;;11.00;46.80;;;;;;5068216;28;20033;-82
2021/04/15 11:32:28;;;;;;;2.72;1.00;;;11.10;44.40;;;;;;5065068;28;20037;-82
2021/04/15 11:35:17;;;;;;;2.70;1.35;;;11.00;43.90;;;;;;5058914;28;20051;-83
2021/04/15 11:37:45;;;;;;;3.25;1.13;;;11.00;45.40;;;;;;5064592;28;20052;-82
2021/04/15 11:40:33;;;;;;;1.83;0.90;;;10.90;46.70;;;;;;5066875;28;20500;-82
2021/04/15 11:43:13;;;;;;;3.65;0.85;;;10.90;44.90;;;;;;5071850;28;20036;-81
2021/04/15 11:45:39;;;;;;;1.83;0.95;;;10.80;46.00;;;;;;5060885;28;20118;-81
2021/04/15 11:48:12;;;;;;;2.35;1.30;;;10.80;45.60;;;;;;5062568;28;20501;-80
2021/04/15 11:50:39;;;;;;;2.83;1.60;;;10.80;45.00;;;;;;5059901;28;20154;-82
2021/04/15 11:53:36;;;;;;;2.10;0.98;;;10.70;46.10;;;;;;5059062;28;20079;-82
2021/04/15 11:56:38;;;;;;;3.33;0.90;;;10.70;43.80;;;;;;5063116;28;20049;-82
2021/04/15 11:59:22;;;;;;;2.75;0.93;;;10.70;42.10;;;;;;5062715;28;20045;-82
2021/04/15 12:01:49;;;;;;;2.70;1.20;;;10.80;45.10;;;;;;5052265;28;20053;-80
2021/04/15 12:04:25;;;;;;;3.70;1.10;;;10.80;44.20;;;;;;5067599;28;20041;-81
2021/04/15 12:07:01;;;;;;;2.10;0.85;;;10.90;45.20;;;;;;5057706;28;20045;-81
2021/04/15 12:09:39;;;;;;;2.25;0.88;;;11.10;42.20;;;;;;5065329;28;20036;-81
2021/04/15 12:12:30;;;;;;;3.08;0.90;;;11.20;41.90;;;;;;5054465;28;20372;-80
2021/04/15 12:15:02;;;;;;;1.85;0.90;;;11.10;38.00;;;;;;5065193;28;20039;-80
2021/04/15 12:17:51;;;;;;;2.03;0.80;;;10.90;41.50;;;;;;5051245;28;20037;-80
2021/04/15 12:20:43;;;;;;;2.95;1.00;;;10.80;41.20;;;;;;5057280;28;20069;-81
2021/04/15 12:23:33;;;;;;;2.58;0.73;;;11.00;40.20;;;;;;5067907;28;20392;-81
2021/04/15 12:26:34;;;;;;;2.58;0.93;;;11.10;41.60;;;;;;5051224;28;20055;-81
2021/04/15 12:29:35;;;;;;;2.78;0.95;;;11.20;38.70;;;;;;5054627;28;20049;-81
2021/04/15 12:32:10;;;;;;;2.53;0.80;;;11.10;39.00;;;;;;5064231;28;20107;-81
2021/04/15 12:34:44;;;;;;;3.05;1.13;;;11.00;41.30;;;;;;5064127;28;20177;-81
2021/04/15 12:37:20;;;;;;;1.60;0.57;;;11.00;41.10;;;;;;5068327;28;20046;-81
2021/04/15 12:39:52;;;;;;;2.35;0.93;;;11.00;39.80;;;;;;5078008;28;20040;-81
2021/04/15 12:42:32;;;;;;;2.17;0.55;;;10.90;40.30;;;;;;5059743;28;20056;-82
2021/04/15 12:45:03;;;;;;;1.52;0.80;;;11.10;41.20;;;;;;5067266;28;20040;-81
2021/04/15 12:47:39;;;;;;;3.17;0.60;;;11.30;41.70;;;;;;5058862;28;20060;-79
2021/04/15 12:50:17;;;;;;;2.33;0.70;;;11.60;41.30;;;;;;5064794;28;20040;-80
2021/04/15 12:52:47;;;;;;;;;;;11.80;40.20;;;;;;5059482;28;20033;-80
2021/04/15 12:55:21;;;;;;;2.47;0.63;;;11.60;36.10;;;;;;5073302;28;19982;-80
2021/04/15 12:57:54;;;;;;;2.72;0.60;;;11.40;39.40;;;;;;5064072;28;20032;-79
2021/04/15 13:00:34;;;;;;;2.03;0.90;;;11.30;39.90;;;;;;5061805;28;20175;-80
2021/04/15 13:03:10;;;;;;;2.63;0.80;;;11.20;38.20;;;;;;5062537;28;20040;-80
2021/04/15 13:05:35;;;;;;;1.73;0.65;;;11.10;39.60;;;;;;5049474;28;20056;-80
2021/04/15 13:08:23;;;;;;;2.70;0.90;;;11.10;41.00;;;;;;5059998;28;20048;-80
2021/04/15 13:10:51;;;;;;;3.90;1.08;;;11.10;38.40;;;;;;5055770;28;20601;-78
2021/04/15 13:13:35;;;;;;;2.20;1.00;;;11.00;40.60;;;;;;5053048;28;20473;-80
2021/04/15 13:16:03;;;;;;;3.23;1.00;;;10.90;39.80;;;;;;5056950;28;20033;-80
2021/04/15 13:18:56;;;;;;;3.65;1.00;;;10.80;41.60;;;;;;5062930;28;20491;-80
2021/04/15 13:21:56;;;;;;;2.80;1.20;;;10.70;40.40;;;;;;5071433;28;20082;-80
2021/04/15 13:24:47;;;;;;;4.13;1.23;;;10.70;40.90;;;;;;5053768;28;20048;-79
2021/04/15 13:27:47;;;;;;;2.72;1.10;;;10.80;41.70;;;;;;5058714;28;20523;-81
2021/04/15 13:34:21;;;;;;;3.30;0.93;;;11.20;40.40;;;;;;5041610;28;20098;-83
2021/04/15 13:37:44;;;;;;;2.45;0.98;;;11.10;39.70;;;;;;5059067;28;20044;-80
2021/04/15 13:40:42;;;;;;;3.92;1.10;;;10.80;42.20;;;;;;5055172;28;20056;-79
2021/04/15 13:43:35;;;;;;;2.50;1.00;;;10.80;43.20;;;;;;5059132;28;20037;-81
2021/04/15 13:46:29;;;;;;;2.40;1.15;;;10.70;40.60;;;;;;5056158;28;20052;-79
2021/04/15 13:49:03;;;;;;;2.30;1.00;;;10.70;41.70;;;;;;5071380;28;20048;-81
2021/04/15 13:51:32;;;;;;;2.23;0.90;;;10.60;40.70;;;;;;5069516;28;20178;-80
2021/04/15 13:54:26;;;;;;;3.25;1.05;;;10.60;42.20;;;;;;5059597;28;20028;-79
2021/04/15 13:57:00;;;;;;;2.95;0.95;;;10.70;40.80;;;;;;5066790;28;20029;-80
2021/04/15 13:59:39;;;;;;;3.27;1.13;;;10.60;42.90;;;;;;5062268;28;20040;-79
2021/04/15 14:02:05;;;;;;;1.77;1.00;;;10.70;42.50;;;;;;5070132;28;20052;-80
2021/04/15 14:04:43;;;;;;;3.97;0.90;;;10.90;41.80;;;;;;5069966;28;20055;-81
2021/04/15 14:07:34;;;;;;;2.53;1.10;;;11.00;40.20;;;;;;5086793;28;20033;-81
2021/04/15 14:10:12;;;;;;;1.95;1.15;;;11.20;39.70;;;;;;5070540;28;20642;-82